Time;durP1;ratioP1;P1;durP2;ratioP2;P2;SDS_P1;SDS_P2;PMS_P1;PMS_P2;Temp;Humidity;BMP_temperature;BMP_pressure;BME280_temperature;BME280_humidity;BME280_pressure;Samples;Min_cycle;Max_cycle;Signal;HPM_P1;HPM_P2
2024/04/12 00:01:10;;;;;;;1.40;0.60;;;;;;;13.20;87.18;101855.75;5411958;26;20038;-67
2024/04/12 00:03:36;;;;;;;2.17;0.73;;;;;;;13.17;87.43;101863.03;5408506;26;20022;-67
2024/04/12 00:06:14;;;;;;;2.08;0.60;;;;;;;13.14;87.42;101858.00;5408549;26;20442;-68
2024/04/12 00:08:42;;;;;;;2.97;0.50;;;;;;;13.07;88.21;101867.31;5411565;26;20019;-66
2024/04/12 00:11:08;;;;;;;1.90;0.65;;;;;;;13.04;88.22;101855.31;5406648;26;20003;-68
2024/04/12 00:13:40;;;;;;;1.10;0.40;;;;;;;13.01;88.09;101865.19;5414810;26;20744;-67
2024/04/12 00:16:09;;;;;;;2.35;0.50;;;;;;;12.91;88.21;101872.97;5409062;26;20007;-67
2024/04/12 00:18:36;;;;;;;1.33;0.55;;;;;;;12.84;88.83;101862.19;5409736;26;20319;-66
2024/04/12 00:21:03;;;;;;;3.03;0.82;;;;;;;12.83;89.06;101859.69;5410821;26;20019;-66
2024/04/12 00:23:30;;;;;;;3.35;0.70;;;;;;;12.79;89.81;101864.34;5410330;26;20019;-67
2024/04/12 00:26:00;;;;;;;1.20;0.40;;;;;;;13.05;87.79;101864.00;5415766;26;20462;-66
2024/04/12 00:28:31;;;;;;;3.75;0.60;;;;;;;13.57;84.56;101863.94;5415219;26;20004;-67
2024/04/12 00:31:06;;;;;;;1.95;0.40;;;;;;;13.59;84.42;101848.94;5408374;26;20387;-66
2024/04/12 00:33:34;;;;;;;2.00;0.45;;;;;;;13.39;85.29;101857.63;5419040;26;20007;-67
2024/04/12 00:36:12;;;;;;;1.30;0.52;;;;;;;13.40;85.56;101859.28;5409918;26;20011;-67
2024/04/12 00:38:41;;;;;;;1.33;0.43;;;;;;;13.38;85.59;101860.38;5408025;26;20031;-66
2024/04/12 00:41:18;;;;;;;1.23;0.60;;;;;;;13.28;85.96;101857.69;5408065;26;20470;-66
2024/04/12 00:43:49;;;;;;;2.53;0.60;;;;;;;14.17;80.95;101853.56;5404724;26;20022;-67
2024/04/12 00:46:23;;;;;;;1.00;0.55;;;;;;;14.58;79.83;101847.31;5414548;26;20084;-67
2024/04/12 00:48:52;;;;;;;5.40;0.40;;;;;;;14.44;80.10;101859.00;5407394;26;20012;-67
2024/04/12 00:51:18;;;;;;;0.85;0.40;;;;;;;14.32;80.61;101857.44;5405743;26;20038;-66
2024/04/12 00:53:56;;;;;;;1.88;0.40;;;;;;;14.23;80.70;101850.38;5409135;26;20168;-67
2024/04/12 00:56:22;;;;;;;1.45;0.60;;;;;;;14.13;81.28;101858.25;5407805;26;20039;-67
2024/04/12 00:58:48;;;;;;;1.50;0.40;;;;;;;14.17;81.25;101854.38;5409447;26;20038;-67
2024/04/12 01:01:17;;;;;;;1.38;0.52;;;;;;;14.31;80.45;101861.03;5408351;26;20020;-67
2024/04/12 01:03:55;;;;;;;2.33;0.40;;;;;;;14.33;80.39;101858.25;5400863;26;20022;-66
2024/04/12 01:06:27;;;;;;;1.33;0.52;;;;;;;14.22;80.92;101857.41;5415655;26;20020;-67
2024/04/12 01:08:57;;;;;;;1.17;0.45;;;;;;;14.13;81.18;101853.00;5405677;26;20014;-67
2024/04/12 01:11:25;;;;;;;2.88;0.40;;;;;;;14.01;81.67;101850.59;5412668;26;20018;-67
2024/04/12 01:13:52;;;;;;;1.70;0.38;;;;;;;13.91;82.16;101853.19;5412318;26;20007;-67
2024/04/12 01:16:18;;;;;;;2.67;0.50;;;;;;;13.87;82.89;101857.03;5401732;26;20918;-67
2024/04/12 01:18:45;;;;;;;1.17;0.40;;;;;;;13.83;83.15;101847.78;5410618;26;20004;-67
2024/04/12 01:21:11;;;;;;;2.03;0.45;;;;;;;13.73;83.63;101852.13;5409901;26;20007;-67
2024/04/12 01:23:43;;;;;;;1.00;0.40;;;;;;;13.58;84.13;101847.28;5404520;26;20089;-67
2024/04/12 01:26:17;;;;;;;1.00;0.52;;;;;;;13.56;84.33;101853.59;5405491;26;20019;-67
2024/04/12 01:28:43;;;;;;;2.70;0.40;;;;;;;13.58;84.34;101862.16;5402992;26;20018;-66
2024/04/12 01:31:15;;;;;;;2.63;0.57;;;;;;;13.52;84.23;101860.88;5413634;26;20003;-67
2024/04/12 01:33:49;;;;;;;2.75;0.30;;;;;;;13.44;84.73;101854.63;5409944;26;20451;-67
2024/04/12 01:36:18;;;;;;;1.63;0.40;;;;;;;13.35;85.72;101852.78;5408641;26;20026;-66
2024/04/12 01:38:57;;;;;;;1.10;0.40;;;;;;;13.21;86.57;101849.56;5407619;26;21903;-67
2024/04/12 01:41:24;;;;;;;1.38;0.50;;;;;;;13.24;85.59;101848.44;5409522;26;20339;-67
2024/04/12 01:43:52;;;;;;;2.22;0.65;;;;;;;13.74;82.26;101846.78;5418535;26;20011;-67
2024/04/12 01:46:26;;;;;;;1.85;0.40;;;;;;;13.98;81.22;101843.84;5414698;26;20051;-66
2024/04/12 01:48:51;;;;;;;1.08;0.40;;;;;;;13.93;81.98;101854.72;5410948;26;20075;-66
2024/04/12 01:51:17;;;;;;;2.08;0.57;;;;;;;13.76;82.81;101844.03;5407751;26;20444;-66
2024/04/12 01:53:42;;;;;;;5.03;0.38;;;;;;;13.71;83.48;101848.81;5409763;26;20030;-67
2024/04/12 01:56:09;;;;;;;1.35;0.60;;;;;;;13.61;83.43;101851.44;5407600;26;20022;-67
2024/04/12 01:58:39;;;;;;;1.13;0.50;;;;;;;13.53;84.08;101853.84;5408580;26;20031;-67
2024/04/12 02:01:06;;;;;;;0.80;0.40;;;;;;;13.41;84.55;101850.47;5406070;26;20007;-67
2024/04/12 02:03:31;;;;;;;4.40;0.60;;;;;;;13.41;84.28;101854.88;5398969;26;20011;-67
2024/04/12 02:05:57;;;;;;;2.75;0.38;;;;;;;13.42;84.05;101862.63;5411305;26;20355;-67
2024/04/12 02:08:24;;;;;;;2.67;0.45;;;;;;;13.39;84.59;101855.00;5411110;26;20022;-67
2024/04/12 02:10:50;;;;;;;1.60;0.40;;;;;;;13.27;85.19;101863.88;5410938;26;20003;-67
2024/04/12 02:13:20;;;;;;;2.35;0.52;;;;;;;13.17;85.88;101863.03;5409684;26;20547;-67
2024/04/12 02:15:52;;;;;;;4.22;0.57;;;;;;;13.13;86.04;101862.41;5408988;26;20130;-67
2024/04/12 02:18:22;;;;;;;1.48;0.43;;;;;;;13.15;85.93;101873.59;5409220;26;20452;-68
2024/04/12 02:20:49;;;;;;;1.20;0.50;;;;;;;13.09;86.30;101861.00;5407977;26;20017;-67
2024/04/12 02:23:15;;;;;;;1.00;0.50;;;;;;;13.03;86.16;101858.06;5409111;26;20092;-68
2024/04/12 02:25:42;;;;;;;2.95;0.77;;;;;;;13.01;86.10;101854.75;5411687;26;20011;-67
2024/04/12 02:28:12;;;;;;;1.33;0.50;;;;;;;13.03;86.21;101855.44;5410870;26;20012;-67
2024/04/12 02:30:42;;;;;;;2.17;0.47;;;;;;;13.00;86.50;101858.31;5438670;26;20032;-67
2024/04/12 02:33:19;;;;;;;5.20;0.55;;;;;;;12.89;88.00;101854.78;5410928;26;20383;-67
2024/04/12 02:35:45;;;;;;;4.18;0.50;;;;;;;13.01;86.01;101865.19;5411738;26;20025;-67
2024/04/12 02:38:21;;;;;;;3.85;0.40;;;;;;;13.19;85.22;101866.34;5409106;26;20023;-67
2024/04/12 02:40:50;;;;;;;1.05;0.40;;;;;;;13.14;85.75;101865.84;5413184;26;20412;-67
2024/04/12 02:43:16;;;;;;;3.08;0.50;;;;;;;13.08;86.24;101863.75;5401881;26;20014;-67
2024/04/12 02:45:49;;;;;;;3.95;0.80;;;;;;;13.24;85.51;101864.97;5413728;26;20019;-67
2024/04/12 02:48:16;;;;;;;1.20;0.45;;;;;;;13.39;84.61;101862.03;5406899;26;20023;-67
2024/04/12 02:50:53;;;;;;;1.05;0.50;;;;;;;13.40;84.42;101868.94;5404595;26;20040;-67
2024/04/12 02:53:23;;;;;;;6.25;0.57;;;;;;;13.42;84.31;101865.22;5412363;26;20011;-67
2024/04/12 02:56:15;;;;;;;1.23;0.47;;;;;;;13.45;84.11;101866.75;5412480;26;20350;-67
2024/04/12 02:58:44;;;;;;;0.90;0.30;;;;;;;13.40;83.96;101875.00;5409608;26;20011;-70
2024/04/12 03:01:23;;;;;;;0.65;0.30;;;;;;;13.33;84.86;101879.09;5410091;26;20042;-67
2024/04/12 03:03:51;;;;;;;4.88;0.68;;;;;;;13.27;84.81;101884.81;5410204;26;20012;-67
2024/04/12 03:06:23;;;;;;;1.50;0.45;;;;;;;13.19;85.19;101871.56;5411220;26;20042;-67
2024/04/12 03:08:50;;;;;;;1.38;0.60;;;;;;;13.07;85.82;101878.63;5410297;26;20011;-67
2024/04/12 03:11:23;;;;;;;2.88;0.65;;;;;;;12.93;86.39;101882.34;5408136;26;20018;-67
2024/04/12 03:13:52;;;;;;;2.05;0.40;;;;;;;12.81;87.33;101872.88;5412797;26;20011;-67
2024/04/12 03:16:19;;;;;;;1.83;0.75;;;;;;;12.75;87.97;101873.41;5410381;26;20059;-66
2024/04/12 03:18:46;;;;;;;1.55;0.40;;;;;;;12.70;88.56;101885.19;5412286;26;20003;-67
2024/04/12 03:21:15;;;;;;;1.40;0.52;;;;;;;12.58;88.98;101887.00;5408057;26;20007;-67
2024/04/12 03:23:43;;;;;;;2.28;0.77;;;;;;;12.47;89.35;101884.41;5410916;26;20026;-67
2024/04/12 03:26:12;;;;;;;2.20;0.50;;;;;;;12.49;88.88;101887.75;5410387;26;20057;-66
2024/04/12 03:28:39;;;;;;;2.20;0.40;;;;;;;12.48;89.38;101886.06;5410413;26;20018;-67
2024/04/12 03:31:07;;;;;;;5.40;0.50;;;;;;;12.41;89.95;101884.91;5413180;26;20007;-67
2024/04/12 03:33:42;;;;;;;1.08;0.57;;;;;;;12.28;90.56;101891.13;5408597;26;20007;-67
2024/04/12 03:41:56;;;;;;;1.83;0.57;;;;;;;12.21;91.71;101889.94;5399473;26;20007;-68
2024/04/12 03:44:25;;;;;;;1.30;0.60;;;;;;;12.14;91.48;101899.22;5361096;26;20153;-67
2024/04/12 03:46:51;;;;;;;1.13;0.55;;;;;;;12.05;91.38;101899.09;5402395;26;20008;-67
2024/04/12 03:49:21;;;;;;;1.85;0.60;;;;;;;11.99;92.17;101900.38;5398033;26;20048;-68
2024/04/12 03:51:55;;;;;;;1.63;0.70;;;;;;;11.91;93.15;101900.16;5394023;26;20031;-67
2024/04/12 03:54:21;;;;;;;4.20;0.80;;;;;;;11.91;92.69;101898.38;5390673;26;20008;-67
2024/04/12 03:56:57;;;;;;;3.40;0.65;;;;;;;11.92;93.20;101900.03;5361287;26;20011;-67
2024/04/12 03:59:29;;;;;;;4.75;1.00;;;;;;;11.92;93.63;101899.19;5404200;26;20034;-67
2024/04/12 04:01:56;;;;;;;1.65;0.80;;;;;;;11.92;94.18;101899.19;5361305;26;20050;-67
2024/04/12 04:04:26;;;;;;;1.77;0.70;;;;;;;11.91;94.35;101902.75;5390867;26;20510;-66
2024/04/12 04:06:55;;;;;;;3.65;0.57;;;;;;;11.84;94.09;101909.41;5400191;26;20026;-67
2024/04/12 04:09:21;;;;;;;2.63;0.70;;;;;;;11.78;94.18;101902.88;5394070;26;20077;-67
2024/04/12 04:11:53;;;;;;;5.07;0.77;;;;;;;11.81;94.09;101896.59;5399572;26;20350;-67
2024/04/12 04:14:19;;;;;;;4.93;1.00;;;;;;;11.81;94.73;101902.66;5407117;26;20087;-67
2024/04/12 04:16:51;;;;;;;6.38;1.02;;;;;;;11.79;94.75;101907.16;5403632;26;20312;-66
2024/04/12 04:19:39;;;;;;;1.52;0.60;;;;;;;11.72;95.62;101908.53;5409646;26;20087;-66
2024/04/12 04:22:21;;;;;;;3.78;0.75;;;;;;;11.67;95.65;101904.63;5411920;26;20034;-66
2024/04/12 04:24:54;;;;;;;5.07;0.90;;;;;;;11.80;95.42;101910.59;5408075;26;20039;-66
2024/04/12 04:27:24;;;;;;;3.00;0.77;;;;;;;11.85;93.91;101911.88;5408735;26;20443;-67
2024/04/12 04:29:51;;;;;;;4.22;0.80;;;;;;;11.80;93.94;101916.66;5405436;26;20019;-66
2024/04/12 04:32:20;;;;;;;3.05;0.85;;;;;;;11.74;94.36;101905.81;5409943;26;20007;-67
2024/04/12 04:34:54;;;;;;;3.65;0.93;;;;;;;11.74;94.98;101908.44;5401179;26;20003;-67
2024/04/12 04:37:26;;;;;;;5.53;0.60;;;;;;;11.76;95.19;101909.97;5407790;26;20436;-67
2024/04/12 04:39:52;;;;;;;5.30;0.88;;;;;;;11.71;95.93;101917.31;5402794;26;20007;-67
2024/04/12 04:42:18;;;;;;;6.57;0.77;;;;;;;11.70;95.51;101920.06;5409990;26;20008;-67
2024/04/12 04:44:43;;;;;;;2.95;0.70;;;;;;;11.82;94.92;101914.72;5407978;26;20037;-67
2024/04/12 04:47:09;;;;;;;6.20;0.80;;;;;;;11.82;94.35;101922.56;5404231;26;20015;-67
2024/04/12 04:49:35;;;;;;;2.55;0.85;;;;;;;11.83;95.56;101923.41;5406307;26;20008;-67
2024/04/12 04:52:01;;;;;;;2.25;0.73;;;;;;;11.78;94.92;101915.13;5407472;26;20096;-67
2024/04/12 04:54:28;;;;;;;5.57;0.82;;;;;;;11.81;95.45;101917.50;5407907;26;20015;-67
2024/04/12 04:56:53;;;;;;;4.07;0.98;;;;;;;11.80;96.01;101916.66;5402515;26;20080;-67
2024/04/12 04:59:28;;;;;;;2.33;0.82;;;;;;;11.79;95.91;101927.22;5405565;26;20456;-67
2024/04/12 05:01:55;;;;;;;3.13;1.15;;;;;;;11.83;97.10;101920.78;5404410;26;20220;-67
2024/04/12 05:04:22;;;;;;;2.00;0.70;;;;;;;11.89;97.06;101922.94;5404379;26;20021;-67
2024/04/12 05:06:50;;;;;;;7.75;1.13;;;;;;;11.91;96.37;101923.66;5404463;26;20556;-67
2024/04/12 05:09:18;;;;;;;2.55;0.68;;;;;;;12.00;96.06;101927.34;5406865;26;20003;-67
2024/04/12 05:11:50;;;;;;;2.35;1.02;;;;;;;12.07;95.40;101926.75;5405253;26;20022;-67
2024/04/12 05:17:09;;;;;;;4.38;1.10;;;;;;;12.15;95.88;101932.22;5401744;26;20527;-67
2024/04/12 05:19:44;;;;;;;2.55;0.98;;;;;;;12.19;96.10;101936.25;5412228;26;20019;-67
2024/04/12 05:22:10;;;;;;;9.32;1.02;;;;;;;12.28;95.84;101940.78;5405121;26;20011;-67
2024/04/12 05:24:36;;;;;;;2.65;0.80;;;;;;;12.40;94.68;101940.75;5412854;26;20045;-67
2024/04/12 05:27:04;;;;;;;17.05;0.98;;;;;;;12.50;93.23;101942.50;5411857;26;20459;-68
2024/04/12 05:29:30;;;;;;;5.05;1.23;;;;;;;12.73;93.45;101947.72;5408955;26;20043;-67
2024/04/12 05:31:59;;;;;;;12.25;0.85;;;;;;;12.89;93.26;101943.72;5410682;26;20015;-67
2024/04/12 05:34:26;;;;;;;10.13;1.23;;;;;;;13.03;93.40;101936.56;5411883;26;20015;-67
2024/04/12 05:36:55;;;;;;;8.88;1.40;;;;;;;13.09;93.17;101936.06;5405721;26;20008;-67
2024/04/12 05:39:22;;;;;;;2.10;1.20;;;;;;;13.14;92.86;101942.56;5412563;26;20033;-67
2024/04/12 05:41:53;;;;;;;9.90;1.27;;;;;;;13.26;92.57;101946.81;5409758;26;20012;-67
2024/04/12 05:44:19;;;;;;;6.28;1.30;;;;;;;13.30;92.57;101936.94;5412067;26;20011;-67
2024/04/12 05:46:45;;;;;;;10.23;1.30;;;;;;;13.44;92.90;101939.25;5406089;26;20011;-67
2024/04/12 05:49:17;;;;;;;5.38;0.95;;;;;;;13.56;92.79;101938.22;5409141;26;20399;-67
2024/04/12 05:51:42;;;;;;;8.88;1.23;;;;;;;13.63;92.01;101942.97;5409344;26;20008;-67
2024/04/12 05:54:26;;;;;;;5.82;1.17;;;;;;;13.71;91.93;101938.72;5408219;26;20389;-67
2024/04/12 05:56:52;;;;;;;8.35;1.00;;;;;;;13.79;91.78;101935.44;5407959;26;20008;-67
2024/04/12 05:59:18;;;;;;;6.40;0.80;;;;;;;13.85;91.50;101935.75;5404446;26;20011;-67
2024/04/12 06:01:46;;;;;;;3.20;1.05;;;;;;;13.95;91.13;101933.19;5406903;26;20022;-67
2024/04/12 06:04:23;;;;;;;2.47;0.82;;;;;;;14.08;90.64;101943.47;5407742;26;20012;-66
2024/04/12 06:06:50;;;;;;;4.68;0.82;;;;;;;14.22;90.09;101945.69;5408941;26;20326;-67
2024/04/12 06:09:20;;;;;;;4.72;1.08;;;;;;;14.45;87.96;101936.72;5412103;26;20030;-67
2024/04/12 06:11:56;;;;;;;5.28;0.80;;;;;;;14.70;87.00;101938.00;5413311;26;20043;-67
2024/04/12 06:14:23;;;;;;;3.47;0.88;;;;;;;14.94;86.28;101938.44;5407685;26;20011;-67
2024/04/12 06:16:57;;;;;;;7.82;0.80;;;;;;;15.12;85.67;101946.44;5410700;26;20021;-67
2024/04/12 06:19:25;;;;;;;1.52;0.50;;;;;;;15.31;84.99;101940.38;5408277;26;20047;-67
2024/04/12 06:21:50;;;;;;;1.60;0.65;;;;;;;15.54;84.95;101936.47;5411506;26;20008;-68
2024/04/12 06:24:26;;;;;;;6.85;0.68;;;;;;;15.70;83.78;101940.34;5410411;26;20022;-68
2024/04/12 06:26:54;;;;;;;4.43;0.80;;;;;;;15.84;83.44;101938.09;5407302;26;20083;-67
2024/04/12 06:29:22;;;;;;;3.17;0.93;;;;;;;16.04;82.21;101940.66;5409093;26;20057;-67
2024/04/12 06:31:53;;;;;;;10.68;1.27;;;;;;;16.22;80.89;101946.78;5413446;26;20472;-69
2024/04/12 06:34:19;;;;;;;3.90;1.20;;;;;;;16.38;80.23;101951.44;5411003;26;20344;-68
2024/04/12 06:36:55;;;;;;;5.85;1.05;;;;;;;16.54;80.17;101947.16;5411277;26;20015;-68
2024/04/12 06:39:26;;;;;;;7.95;1.80;;;;;;;16.71;80.17;101942.13;5408541;26;20011;-68
2024/04/12 06:41:57;;;;;;;9.43;1.30;;;;;;;16.89;79.59;101942.97;5411335;26;20022;-68
2024/04/12 06:44:24;;;;;;;11.15;1.75;;;;;;;17.06;78.48;101936.84;5409081;26;20339;-68
2024/04/12 06:46:53;;;;;;;11.90;1.77;;;;;;;17.26;78.59;101932.25;5411736;26;20499;-69
2024/04/12 06:49:32;;;;;;;8.50;1.90;;;;;;;17.45;77.87;101932.09;5409003;26;20011;-68
2024/04/12 06:52:09;;;;;;;10.98;2.40;;;;;;;17.62;77.92;101934.81;5412209;26;20354;-68
2024/04/12 06:54:36;;;;;;;6.55;1.38;;;;;;;17.74;76.24;101937.06;5407609;26;20299;-68
2024/04/12 06:57:06;;;;;;;7.50;0.57;;;;;;;17.91;72.51;101932.72;5406163;26;20008;-69
2024/04/12 06:59:35;;;;;;;5.25;0.60;;;;;;;18.08;72.91;101938.88;5407648;26;20141;-68
2024/04/12 07:02:04;;;;;;;1.98;0.55;;;;;;;18.23;72.88;101938.13;5407927;26;20027;-68
2024/04/12 07:04:30;;;;;;;8.27;0.75;;;;;;;18.39;73.14;101941.81;5405850;26;20008;-68
2024/04/12 07:06:58;;;;;;;3.72;0.60;;;;;;;18.52;72.33;101937.72;5412173;26;20091;-68
2024/04/12 07:09:24;;;;;;;3.60;0.68;;;;;;;18.63;72.43;101939.28;5408545;26;20003;-68
2024/04/12 07:11:51;;;;;;;2.92;0.60;;;;;;;18.75;71.78;101931.88;5410424;26;20007;-68
2024/04/12 07:14:22;;;;;;;1.23;0.60;;;;;;;18.81;71.04;101939.97;5395813;26;20047;-68
2024/04/12 07:16:48;;;;;;;2.45;0.52;;;;;;;18.92;71.54;101938.81;5406987;26;20018;-69
2024/04/12 07:19:14;;;;;;;2.15;0.70;;;;;;;19.01;70.80;101944.94;5406926;26;20461;-68
2024/04/12 07:21:40;;;;;;;0.73;0.32;;;;;;;19.15;69.87;101933.72;5411476;26;20043;-68
2024/04/12 07:24:06;;;;;;;1.45;0.40;;;;;;;19.25;69.69;101939.66;5412151;26;20015;-69
2024/04/12 07:26:32;;;;;;;1.30;0.30;;;;;;;19.32;68.79;101945.94;5411547;26;20018;-68
2024/04/12 07:28:59;;;;;;;4.65;0.40;;;;;;;19.42;68.52;101943.94;5412232;26;20072;-68
2024/04/12 07:31:30;;;;;;;1.73;0.32;;;;;;;19.51;67.29;101939.50;5411086;26;20003;-68
2024/04/12 07:34:00;;;;;;;3.42;0.30;;;;;;;19.61;67.29;101949.91;5412601;26;20018;-68
2024/04/12 07:36:30;;;;;;;0.60;0.30;;;;;;;19.71;66.75;101945.25;5411204;26;20007;-68
2024/04/12 07:39:01;;;;;;;1.90;0.30;;;;;;;19.85;66.71;101940.09;5411954;26;20022;-68
2024/04/12 07:41:37;;;;;;;2.38;0.40;;;;;;;19.93;64.68;101944.53;5405577;26;20012;-68
2024/04/12 07:44:04;;;;;;;1.92;0.30;;;;;;;20.01;67.06;101946.31;5411109;26;20012;-68
2024/04/12 07:46:33;;;;;;;2.20;0.30;;;;;;;20.15;66.36;101954.38;5409245;26;20007;-68
2024/04/12 07:49:02;;;;;;;6.80;0.30;;;;;;;20.34;65.68;101950.47;5411771;26;20084;-67
2024/04/12 07:51:31;;;;;;;1.67;0.30;;;;;;;20.46;65.46;101950.94;5410559;26;24270;-68
2024/04/12 07:54:06;;;;;;;3.25;0.30;;;;;;;20.55;63.71;101955.22;5392577;26;20152;-68
2024/04/12 07:56:38;;;;;;;1.50;0.30;;;;;;;20.65;64.31;101955.81;5400830;26;20007;-68
2024/04/12 07:59:17;;;;;;;1.70;0.30;;;;;;;20.86;62.95;101950.69;5411167;26;20016;-68
2024/04/12 08:01:46;;;;;;;1.88;0.30;;;;;;;20.96;63.22;101957.59;5408458;26;20351;-68
2024/04/12 08:04:25;;;;;;;1.33;0.40;;;;;;;21.05;63.27;101959.19;5410322;26;20790;-68
2024/04/12 08:09:42;;;;;;;1.50;0.30;;;;;;;21.30;62.31;101960.66;5405273;26;20007;-68
2024/04/12 08:12:14;;;;;;;1.55;0.38;;;;;;;21.46;62.12;101955.22;5408046;26;20370;-67
2024/04/12 08:14:54;;;;;;;3.22;0.50;;;;;;;21.54;61.72;101959.63;5411663;26;20666;-68
2024/04/12 08:17:23;;;;;;;4.30;0.38;;;;;;;21.92;60.47;101959.56;5405297;26;20088;-67
2024/04/12 08:19:50;;;;;;;4.55;0.50;;;;;;;22.22;59.83;101960.38;5404830;26;20336;-68
2024/04/12 08:22:18;;;;;;;3.88;0.38;;;;;;;22.29;59.49;101963.94;5408387;26;20022;-68
2024/04/12 08:24:49;;;;;;;1.08;0.20;;;;;;;22.14;59.40;101958.69;5411260;26;20007;-68
2024/04/12 08:27:18;;;;;;;2.20;0.40;;;;;;;22.06;59.71;101959.59;5409508;26;20007;-68
2024/04/12 08:29:45;;;;;;;0.90;0.30;;;;;;;22.18;59.25;101960.78;5410168;26;20383;-68
2024/04/12 08:34:43;;;;;;;3.10;0.30;;;;;;;22.45;59.25;101958.44;5408130;26;20022;-68
2024/04/12 08:37:16;;;;;;;2.20;0.30;;;;;;;22.54;58.66;101957.31;5397485;26;20348;-68
2024/04/12 08:39:52;;;;;;;1.67;0.35;;;;;;;22.58;58.69;101966.56;5410238;26;20027;-68
2024/04/12 08:42:18;;;;;;;2.72;0.40;;;;;;;22.67;58.09;101964.63;5410603;26;20424;-68
2024/04/12 08:44:45;;;;;;;2.13;0.35;;;;;;;22.46;57.48;101957.44;5408331;26;20011;-68
2024/04/12 08:50:03;;;;;;;1.83;0.30;;;;;;;22.46;57.53;101949.47;5407811;26;20351;-68
2024/04/12 08:52:43;;;;;;;1.75;0.40;;;;;;;22.43;58.33;101950.66;5409188;26;20015;-68
2024/04/12 08:55:14;;;;;;;1.90;0.38;;;;;;;22.42;58.45;101945.53;5404306;26;20355;-68
2024/04/12 08:57:41;;;;;;;2.90;0.30;;;;;;;22.35;58.81;101939.31;5408762;26;20012;-68
2024/04/12 09:00:15;;;;;;;0.80;0.30;;;;;;;22.31;58.46;101938.03;5411147;26;20015;-68
2024/04/12 09:02:48;;;;;;;1.67;0.40;;;;;;;22.31;58.36;101938.03;5408029;26;20440;-68
2024/04/12 09:05:14;;;;;;;0.80;0.30;;;;;;;22.40;58.46;101931.63;5404524;26;20232;-68
2024/04/12 09:07:42;;;;;;;1.05;0.30;;;;;;;22.32;57.87;101939.69;5409281;26;20019;-68
2024/04/12 09:10:15;;;;;;;0.40;0.20;;;;;;;22.23;56.99;101932.84;5405650;26;20007;-70
2024/04/12 09:12:43;;;;;;;0.93;0.30;;;;;;;22.20;58.93;101935.88;5411107;26;20008;-69
2024/04/12 09:15:13;;;;;;;1.23;0.20;;;;;;;22.17;58.88;101937.09;5408997;26;20004;-69
2024/04/12 09:17:41;;;;;;;0.80;0.20;;;;;;;22.12;58.62;101939.47;5410941;26;20307;-69
2024/04/12 09:20:29;;;;;;;0.90;0.30;;;;;;;22.00;58.86;101948.84;5405194;26;20026;-69
2024/04/12 09:22:55;;;;;;;0.60;0.30;;;;;;;22.09;58.29;101945.13;5402971;26;20011;-70
2024/04/12 09:25:26;;;;;;;3.33;0.40;;;;;;;22.16;58.38;101956.66;5409874;26;20491;-69
2024/04/12 09:27:57;;;;;;;0.85;0.28;;;;;;;22.12;58.74;101950.91;5409959;26;20008;-70
2024/04/12 09:33:20;;;;;;;2.75;0.30;;;;;;;21.88;58.94;101952.97;5409894;26;20018;-70
2024/04/12 09:35:51;;;;;;;3.08;0.38;;;;;;;21.75;58.49;101948.28;5410070;26;20022;-70
2024/04/12 09:38:21;;;;;;;1.38;0.20;;;;;;;21.70;58.70;101950.69;5409555;26;20004;-70
2024/04/12 09:41:02;;;;;;;1.45;0.68;;;;;;;21.71;58.72;101942.56;5410088;26;20092;-70
2024/04/12 09:43:31;;;;;;;1.77;0.40;;;;;;;21.77;58.65;101948.94;5408585;26;21947;-70
2024/04/12 09:46:08;;;;;;;1.10;0.30;;;;;;;21.86;57.88;101940.72;5410559;26;20016;-70
2024/04/12 10:38:56;;;;;;;1.80;0.25;;;;;;;22.41;55.66;101920.00;5409035;26;20013;-70
2024/04/12 10:41:26;;;;;;;3.28;0.30;;;;;;;22.49;55.00;101910.06;5409775;26;20019;-70
2024/04/12 10:43:55;;;;;;;2.65;0.30;;;;;;;22.58;54.42;101913.44;5374734;26;20007;-70
2024/04/12 10:46:20;;;;;;;1.20;0.20;;;;;;;22.45;54.83;101910.63;5411551;26;20081;-69
2024/04/12 10:48:45;;;;;;;0.60;0.20;;;;;;;22.32;55.09;101907.81;5408934;26;20028;-69
2024/04/12 10:51:16;;;;;;;2.47;0.32;;;;;;;22.37;55.38;101906.25;5410835;26;20008;-70
2024/04/12 10:53:43;;;;;;;0.52;0.20;;;;;;;22.31;55.53;101906.19;5414171;26;20035;-69
2024/04/12 10:56:18;;;;;;;4.70;0.40;;;;;;;22.23;55.50;101903.63;5411282;26;20496;-69
2024/04/12 10:58:51;;;;;;;0.98;0.32;;;;;;;22.13;55.55;101899.47;5400813;26;20088;-69
2024/04/12 11:01:17;;;;;;;2.20;0.30;;;;;;;22.11;55.93;101901.47;5406131;26;20018;-69
2024/04/12 11:03:56;;;;;;;0.50;0.20;;;;;;;22.14;55.56;101894.97;5401259;26;20080;-69
2024/04/12 11:06:30;;;;;;;3.13;0.20;;;;;;;22.14;55.80;101895.81;5405924;26;20018;-69
2024/04/12 11:09:00;;;;;;;1.58;0.40;;;;;;;22.15;55.71;101884.19;5410663;26;20324;-69
2024/04/12 11:11:31;;;;;;;1.85;0.35;;;;;;;22.18;55.66;101885.63;5407500;26;20471;-69
2024/04/12 11:13:59;;;;;;;1.13;0.30;;;;;;;22.20;55.79;101882.78;5402444;26;20029;-69
2024/04/12 11:32:55;;;;;;;1.92;0.50;;;;;;;22.27;55.35;101868.56;5403296;26;20025;-68
2024/04/12 11:35:28;;;;;;;1.60;0.30;;;;;;;22.34;55.32;101864.16;5406238;26;20351;-68
2024/04/12 11:37:54;;;;;;;3.00;0.38;;;;;;;22.28;55.59;101861.41;5411569;26;20019;-69
2024/04/12 11:40:20;;;;;;;0.85;0.30;;;;;;;22.28;55.54;101864.06;5402081;26;20775;-68
2024/04/12 11:42:46;;;;;;;1.75;0.38;;;;;;;22.40;54.73;101857.28;5410179;26;20022;-68
2024/04/12 11:45:14;;;;;;;1.80;0.30;;;;;;;22.45;53.64;101854.88;5402519;26;20011;-67
2024/04/12 11:47:40;;;;;;;1.77;0.30;;;;;;;22.54;54.13;101843.13;5404902;26;20026;-67
2024/04/12 11:50:10;;;;;;;1.27;0.40;;;;;;;22.58;54.08;101844.38;5405505;26;20004;-68
2024/04/12 11:52:38;;;;;;;0.82;0.30;;;;;;;22.67;53.82;101839.78;5392368;26;20004;-67
2024/04/12 11:55:06;;;;;;;4.75;0.28;;;;;;;22.74;53.33;101838.78;5402205;26;20081;-66
2024/04/12 11:57:36;;;;;;;2.88;0.30;;;;;;;22.82;53.32;101835.22;5402356;26;20029;-68
2024/04/12 12:00:09;;;;;;;1.08;0.22;;;;;;;22.83;53.24;101827.03;5405012;26;20009;-68
2024/04/12 12:02:36;;;;;;;0.60;0.30;;;;;;;22.86;53.00;101828.50;5405613;26;20011;-67
2024/04/12 12:05:01;;;;;;;1.10;0.22;;;;;;;22.80;53.02;101827.44;5408061;26;20048;-67
2024/04/12 12:07:27;;;;;;;2.20;0.40;;;;;;;22.77;52.28;101834.94;5406874;26;20084;-68
2024/04/12 12:09:52;;;;;;;1.45;0.22;;;;;;;22.79;52.54;101823.13;5411263;26;20081;-67
2024/04/12 12:12:21;;;;;;;5.05;0.38;;;;;;;22.65;53.49;101818.72;5404856;26;20046;-67
2024/04/12 12:14:47;;;;;;;1.52;0.40;;;;;;;22.64;53.32;101818.91;5408500;26;20011;-68
2024/04/12 12:17:18;;;;;;;1.27;0.50;;;;;;;22.54;52.32;101811.25;5398001;26;20012;-67
2024/04/12 12:19:52;;;;;;;4.60;0.68;;;;;;;22.69;50.70;101814.63;5393738;26;20460;-66
2024/04/12 12:22:19;;;;;;;2.75;0.40;;;;;;;22.70;52.56;101807.47;5407038;26;20086;-67
2024/04/12 12:24:47;;;;;;;2.88;0.60;;;;;;;22.67;53.11;101798.09;5405245;26;20536;-67
2024/04/12 12:27:13;;;;;;;2.85;0.30;;;;;;;22.57;53.55;101802.91;5403993;26;20016;-68
2024/04/12 12:29:39;;;;;;;1.90;0.30;;;;;;;22.59;53.46;101806.19;5404643;26;20026;-67
2024/04/12 12:32:05;;;;;;;0.80;0.30;;;;;;;22.85;51.95;101797.63;5402135;26;20004;-67
2024/04/12 12:34:33;;;;;;;1.40;0.30;;;;;;;22.86;52.46;101799.28;5398896;26;20023;-67
2024/04/12 12:37:00;;;;;;;1.88;0.43;;;;;;;22.91;52.07;101791.53;5406969;26;20019;-66
2024/04/12 12:39:30;;;;;;;1.20;0.40;;;;;;;23.03;51.92;101791.84;5406121;26;20090;-67
2024/04/12 12:41:57;;;;;;;3.20;0.40;;;;;;;22.96;52.50;101783.00;5404232;26;20019;-67
2024/04/12 12:44:22;;;;;;;2.00;0.40;;;;;;;22.86;52.02;101779.84;5405193;26;20011;-66
2024/04/12 12:46:48;;;;;;;4.40;0.50;;;;;;;23.10;50.27;101774.09;5408970;26;20003;-67
2024/04/12 12:49:19;;;;;;;4.18;0.30;;;;;;;23.08;51.35;101779.59;5402948;26;20453;-67
2024/04/12 12:51:47;;;;;;;1.55;0.50;;;;;;;23.06;51.97;101778.16;5402688;26;21610;-67
2024/04/12 12:54:13;;;;;;;0.93;0.30;;;;;;;22.97;51.74;101764.19;5406857;26;20083;-67
2024/04/12 12:56:40;;;;;;;3.38;0.30;;;;;;;23.07;51.66;101761.19;5405898;26;20019;-67
2024/04/12 12:59:05;;;;;;;1.50;0.30;;;;;;;23.08;51.02;101749.53;5407697;26;20030;-67
2024/04/12 13:01:41;;;;;;;1.30;0.20;;;;;;;22.95;52.56;101750.28;5406914;26;20007;-67